createdAt,value
2019-05-01T00:00:25.187Z,1013.84
2019-05-01T00:01:25.167Z,1013.88
2019-05-01T00:02:25.145Z,1013.91
2019-05-01T00:03:25.124Z,1013.89
2019-05-01T00:04:25.103Z,1013.79
2019-05-01T00:05:25.093Z,1013.80
2019-05-01T00:06:25.064Z,1013.81
2019-05-01T00:07:25.039Z,1013.78
2019-05-01T00:08:25.030Z,1013.80
2019-05-01T00:09:24.999Z,1013.81
2019-05-01T00:10:24.984Z,1013.80
2019-05-01T00:11:24.959Z,1013.76
2019-05-01T00:12:24.931Z,1013.76
2019-05-01T00:13:24.908Z,1013.74
2019-05-01T00:14:24.889Z,1013.74
2019-05-01T00:15:24.866Z,1013.66
2019-05-01T00:17:27.620Z,1013.68
2019-05-01T00:18:25.010Z,1013.65
2019-05-01T00:24:08.130Z,1013.59
2019-05-01T00:25:08.109Z,1013.56
2019-05-01T00:26:08.089Z,1013.51
2019-05-01T00:27:08.067Z,1013.48
2019-05-01T00:28:08.042Z,1013.49
2019-05-01T00:29:08.020Z,1013.48
2019-05-01T00:30:08.003Z,1013.46
2019-05-01T00:31:07.982Z,1013.47
2019-05-01T00:32:07.956Z,1013.42
2019-05-01T00:33:07.943Z,1013.41
2019-05-01T00:34:07.917Z,1013.38
2019-05-01T00:35:07.893Z,1013.38
2019-05-01T00:36:07.871Z,1013.37
2019-05-01T00:37:07.856Z,1013.36
2019-05-01T00:38:07.831Z,1013.36
2019-05-01T00:39:07.805Z,1013.40
2019-05-01T00:40:07.785Z,1013.44
2019-05-01T00:41:07.764Z,1013.42
2019-05-01T00:42:07.743Z,1013.42
2019-05-01T00:43:07.719Z,1013.38
2019-05-01T00:44:07.698Z,1013.37
2019-05-01T00:45:07.677Z,1013.33
2019-05-01T00:46:07.659Z,1013.29
2019-05-01T00:47:07.640Z,1013.32
2019-05-01T00:48:07.612Z,1013.28
2019-05-01T00:49:07.591Z,1013.29
2019-05-01T00:50:07.570Z,1013.26
2019-05-01T00:51:07.556Z,1013.25
2019-05-01T00:52:07.523Z,1013.27
2019-05-01T00:53:07.510Z,1013.27
2019-05-01T00:57:07.430Z,1013.26
2019-05-01T00:58:07.397Z,1013.29
2019-05-01T00:59:07.374Z,1013.35
2019-05-01T01:00:07.353Z,1013.30
2019-05-01T01:01:07.341Z,1013.31
2019-05-01T01:33:30.732Z,1013.18
2019-05-01T01:36:30.471Z,1013.16
2019-05-01T01:37:31.672Z,1013.14
2019-05-01T01:45:47.867Z,1013.15
2019-05-01T01:46:47.844Z,1013.10
2019-05-01T01:47:47.824Z,1013.14
2019-05-01T01:48:47.803Z,1013.09
2019-05-01T01:49:47.779Z,1013.11
2019-05-01T01:50:47.759Z,1013.07
2019-05-01T01:51:47.741Z,1013.11
2019-05-01T01:52:47.715Z,1013.15
2019-05-01T01:53:47.691Z,1013.15
2019-05-01T01:54:47.669Z,1013.15
2019-05-01T01:55:47.647Z,1013.12
2019-05-01T01:56:47.626Z,1013.14
2019-05-01T01:57:47.602Z,1013.16
2019-05-01T01:58:47.581Z,1013.16
2019-05-01T01:59:47.564Z,1013.12
2019-05-01T02:00:47.536Z,1013.15
2019-05-01T02:01:47.524Z,1013.16
2019-05-01T02:02:47.492Z,1013.14
2019-05-01T02:03:47.469Z,1013.16
2019-05-01T02:04:47.449Z,1013.12
2019-05-01T02:05:47.426Z,1013.12
2019-05-01T02:06:47.403Z,1013.15
2019-05-01T02:07:47.382Z,1013.10
2019-05-01T02:08:56.358Z,1013.13
2019-05-01T02:09:47.340Z,1013.15
2019-05-01T02:10:47.316Z,1013.11
2019-05-01T02:11:47.296Z,1013.14
2019-05-01T02:12:47.274Z,1013.07
2019-05-01T02:13:47.248Z,1013.08
2019-05-01T02:14:47.232Z,1013.06
2019-05-01T02:15:47.210Z,1013.07
2019-05-01T02:16:47.184Z,1013.05
2019-05-01T02:17:47.175Z,1013.05
2019-05-01T02:18:47.152Z,1013.05
2019-05-01T02:19:47.164Z,1013.01
2019-05-01T02:20:47.095Z,1013.03
2019-05-01T02:21:47.075Z,1013.01
2019-05-01T02:22:47.056Z,1013.02
2019-05-01T02:23:47.029Z,1013.02
2019-05-01T02:24:47.005Z,1013.02
2019-05-01T02:25:46.986Z,1013.05
2019-05-01T02:26:46.962Z,1013.06
2019-05-01T02:27:46.937Z,1013.02
2019-05-01T02:28:46.919Z,1013.00
2019-05-01T02:29:46.895Z,1013.00
2019-05-01T02:30:46.886Z,1012.98
2019-05-01T02:31:46.868Z,1012.91
2019-05-01T02:32:46.832Z,1012.91
2019-05-01T02:33:46.809Z,1012.92
2019-05-01T02:34:46.789Z,1012.95
2019-05-01T02:35:46.774Z,1012.96
2019-05-01T02:36:46.750Z,1012.96
2019-05-01T02:37:46.722Z,1012.98
2019-05-01T02:38:46.701Z,1012.93
2019-05-01T02:39:46.710Z,1012.96
2019-05-01T02:40:46.652Z,1012.95
2019-05-01T02:41:46.643Z,1012.91
2019-05-01T02:42:46.613Z,1012.94
2019-05-01T02:43:46.589Z,1012.97
2019-05-01T02:44:46.566Z,1012.91
2019-05-01T02:45:46.548Z,1012.94
2019-05-01T02:46:46.523Z,1012.93
2019-05-01T02:47:46.501Z,1012.96
2019-05-01T02:48:46.491Z,1012.92
2019-05-01T02:49:46.451Z,1012.93
2019-05-01T02:50:46.430Z,1012.92
2019-05-01T02:51:46.413Z,1012.93
2019-05-01T02:52:46.460Z,1012.90
2019-05-01T02:53:46.364Z,1012.89
2019-05-01T02:54:46.343Z,1012.88
2019-05-01T02:55:46.321Z,1012.87
2019-05-01T02:56:46.299Z,1012.88
2019-05-01T02:57:46.283Z,1012.88
2019-05-01T02:58:46.255Z,1012.89
2019-05-01T02:59:46.241Z,1012.88
2019-05-01T03:00:46.210Z,1012.88
2019-05-01T03:01:47.932Z,1012.82
2019-05-01T03:02:46.167Z,1012.86
2019-05-01T03:03:46.144Z,1012.84
2019-05-01T03:04:46.128Z,1012.87
2019-05-01T03:05:46.100Z,1012.83
2019-05-01T03:06:46.077Z,1012.85
2019-05-01T03:07:46.056Z,1012.83
2019-05-01T03:08:46.031Z,1012.82
2019-05-01T03:09:46.015Z,1012.82
2019-05-01T03:10:45.991Z,1012.81
2019-05-01T03:11:45.972Z,1012.83
2019-05-01T03:12:45.959Z,1012.83
2019-05-01T03:13:45.924Z,1012.83
2019-05-01T03:14:45.897Z,1012.82
2019-05-01T03:15:45.884Z,1012.85
2019-05-01T03:16:45.855Z,1012.82
2019-05-01T03:17:45.833Z,1012.81
2019-05-01T03:18:45.817Z,1012.84
2019-05-01T03:19:45.788Z,1012.82
2019-05-01T03:20:45.774Z,1012.86
2019-05-01T03:21:45.742Z,1012.84
2019-05-01T03:22:45.726Z,1012.82
2019-05-01T03:23:45.700Z,1012.77
2019-05-01T03:24:45.677Z,1012.81
2019-05-01T03:25:45.656Z,1012.81
2019-05-01T03:26:45.632Z,1012.83
2019-05-01T03:27:45.611Z,1012.82
2019-05-01T03:28:45.587Z,1012.83
2019-05-01T03:29:45.567Z,1012.83
2019-05-01T03:30:45.561Z,1012.83
2019-05-01T03:32:13.307Z,1012.81
2019-05-01T03:32:45.544Z,1012.78
2019-05-01T03:33:45.478Z,1012.77
2019-05-01T03:34:51.942Z,1012.77
2019-05-01T03:35:45.433Z,1012.72
2019-05-01T03:36:45.413Z,1012.72
2019-05-01T03:37:45.387Z,1012.68
2019-05-01T03:38:45.369Z,1012.68
2019-05-01T03:39:45.345Z,1012.68
2019-05-01T03:40:45.323Z,1012.71
2019-05-01T03:41:45.301Z,1012.70
2019-05-01T03:42:45.281Z,1012.67
2019-05-01T03:43:45.258Z,1012.67
2019-05-01T03:44:45.234Z,1012.66
2019-05-01T03:45:45.212Z,1012.62
2019-05-01T03:46:45.189Z,1012.59
2019-05-01T03:47:45.175Z,1012.59
2019-05-01T03:48:45.144Z,1012.58
2019-05-01T03:49:45.121Z,1012.61
2019-05-01T03:50:47.215Z,1012.66
2019-05-01T03:51:45.074Z,1012.66
2019-05-01T03:52:45.053Z,1012.60
2019-05-01T03:53:45.033Z,1012.60
2019-05-01T03:54:45.008Z,1012.64
2019-05-01T03:55:44.987Z,1012.60
2019-05-01T03:56:44.970Z,1012.60
2019-05-01T03:57:44.947Z,1012.59
2019-05-01T03:58:44.920Z,1012.57
2019-05-01T03:59:45.099Z,1012.60
2019-05-01T04:00:44.884Z,1012.61
2019-05-01T04:01:44.862Z,1012.61
2019-05-01T04:02:44.838Z,1012.55
2019-05-01T04:03:44.809Z,1012.61
2019-05-01T04:04:44.796Z,1012.59
2019-05-01T04:05:44.764Z,1012.57
2019-05-01T04:06:44.741Z,1012.58
2019-05-01T04:07:44.718Z,1012.59
2019-05-01T04:08:44.699Z,1012.58
2019-05-01T04:09:44.676Z,1012.58
2019-05-01T04:10:44.653Z,1012.56
2019-05-01T04:11:44.632Z,1012.61
2019-05-01T04:12:44.608Z,1012.64
2019-05-01T04:13:44.586Z,1012.61
2019-05-01T04:15:44.541Z,1012.67
2019-05-01T04:16:44.723Z,1012.72
2019-05-01T04:19:44.453Z,1012.72
2019-05-01T04:24:44.359Z,1012.75
2019-05-01T04:25:44.316Z,1012.77
2019-05-01T04:26:44.295Z,1012.74
2019-05-01T04:27:44.277Z,1012.76
2019-05-01T04:28:44.252Z,1012.78
2019-05-01T04:29:44.231Z,1012.77
2019-05-01T04:30:44.206Z,1012.72
2019-05-01T04:31:44.185Z,1012.77
2019-05-01T04:32:52.501Z,1012.75
2019-05-01T04:33:44.139Z,1012.76
2019-05-01T04:34:44.117Z,1012.76
2019-05-01T04:35:44.095Z,1012.76
2019-05-01T04:36:44.070Z,1012.75
2019-05-01T04:37:44.048Z,1012.72
2019-05-01T04:38:44.024Z,1012.76
2019-05-01T04:39:44.002Z,1012.76
2019-05-01T04:40:43.988Z,1012.73
2019-05-01T04:41:43.966Z,1012.74
2019-05-01T04:42:43.938Z,1012.76
2019-05-01T04:43:43.915Z,1012.74
2019-05-01T04:44:43.894Z,1012.70
2019-05-01T04:45:43.871Z,1012.71
2019-05-01T04:46:43.855Z,1012.70
2019-05-01T04:47:43.833Z,1012.70
2019-05-01T04:48:43.807Z,1012.74
2019-05-01T04:49:43.781Z,1012.76
2019-05-01T04:50:43.758Z,1012.77
2019-05-01T04:51:43.736Z,1012.77
2019-05-01T04:52:43.713Z,1012.76
2019-05-01T04:53:43.695Z,1012.79
2019-05-01T04:54:43.666Z,1012.81
2019-05-01T04:55:43.647Z,1012.84
2019-05-01T04:56:43.622Z,1012.83
2019-05-01T04:57:43.598Z,1012.85
2019-05-01T04:58:43.579Z,1012.80
2019-05-01T04:59:43.561Z,1012.83
2019-05-01T05:00:43.531Z,1012.85
2019-05-01T05:01:43.510Z,1012.86
2019-05-01T05:02:43.487Z,1012.81
2019-05-01T05:03:43.468Z,1012.90
2019-05-01T05:04:43.444Z,1012.89
2019-05-01T05:05:43.420Z,1012.90
2019-05-01T05:06:43.396Z,1012.94
2019-05-01T05:07:43.372Z,1012.95
2019-05-01T05:08:43.353Z,1012.92
2019-05-01T05:09:43.329Z,1012.91
2019-05-01T05:10:43.307Z,1012.93
2019-05-01T05:11:43.289Z,1012.98
2019-05-01T05:12:43.261Z,1013.03
2019-05-01T05:13:43.240Z,1013.01
2019-05-01T05:14:43.218Z,1013.00
2019-05-01T05:15:43.195Z,1012.96
2019-05-01T05:16:43.180Z,1012.95
2019-05-01T05:17:43.147Z,1012.93
2019-05-01T05:18:43.128Z,1012.91
2019-05-01T05:19:43.106Z,1012.95
2019-05-01T05:20:43.086Z,1012.94
2019-05-01T05:21:43.061Z,1012.93
2019-05-01T05:22:43.039Z,1012.92
2019-05-01T05:23:43.018Z,1012.93
2019-05-01T05:24:42.995Z,1012.94
2019-05-01T05:25:42.973Z,1012.96
2019-05-01T05:26:42.950Z,1012.96
2019-05-01T05:27:42.929Z,1012.99
2019-05-01T05:28:42.911Z,1012.98
2019-05-01T05:29:42.882Z,1013.01
2019-05-01T05:30:42.861Z,1012.98
2019-05-01T05:31:42.837Z,1012.99
2019-05-01T05:32:42.816Z,1013.00
2019-05-01T05:33:42.793Z,1012.97
2019-05-01T05:34:42.774Z,1012.99
2019-05-01T05:35:42.748Z,1012.95
2019-05-01T05:36:42.728Z,1012.96
2019-05-01T05:37:42.705Z,1012.97
2019-05-01T05:38:42.681Z,1012.99
2019-05-01T05:39:42.668Z,1012.97
2019-05-01T05:40:42.643Z,1013.00
2019-05-01T05:41:42.618Z,1012.97
2019-05-01T05:42:42.598Z,1013.00
2019-05-01T05:43:42.627Z,1012.98
2019-05-01T05:44:42.553Z,1013.01
2019-05-01T05:45:42.527Z,1012.97
2019-05-01T05:46:42.504Z,1012.97
2019-05-01T05:47:42.492Z,1013.00
2019-05-01T05:48:42.465Z,1012.99
2019-05-01T05:49:42.439Z,1012.93
2019-05-01T05:50:42.418Z,1012.94
2019-05-01T05:51:42.403Z,1012.96
2019-05-01T05:52:42.371Z,1012.93
2019-05-01T05:53:42.348Z,1012.94
2019-05-01T05:54:42.328Z,1012.94
2019-05-01T05:55:42.308Z,1012.94
2019-05-01T05:56:42.284Z,1012.95
2019-05-01T05:57:42.261Z,1012.92
2019-05-01T05:58:42.242Z,1012.92
2019-05-01T05:59:42.215Z,1012.95
2019-05-01T06:00:42.193Z,1012.94
2019-05-01T06:01:42.172Z,1012.91
2019-05-01T06:02:42.151Z,1012.89
2019-05-01T06:03:42.129Z,1012.91
2019-05-01T06:04:42.108Z,1012.92
2019-05-01T06:05:42.089Z,1012.90
2019-05-01T06:06:42.072Z,1012.87
2019-05-01T06:07:42.041Z,1012.86
2019-05-01T06:08:42.029Z,1012.94
2019-05-01T06:09:44.655Z,1012.91
2019-05-01T06:10:41.974Z,1012.90
2019-05-01T06:11:43.316Z,1012.90
2019-05-01T06:12:46.755Z,1012.91
2019-05-01T06:13:41.922Z,1012.90
2019-05-01T06:14:41.885Z,1012.92
2019-05-01T06:15:42.721Z,1012.89
2019-05-01T06:16:41.846Z,1012.90
2019-05-01T06:17:41.822Z,1012.90
2019-05-01T06:18:41.799Z,1012.94
2019-05-01T06:19:45.839Z,1012.90
2019-05-01T06:20:41.762Z,1012.90
2019-05-01T06:21:41.732Z,1012.92
2019-05-01T06:22:45.168Z,1012.92
2019-05-01T06:23:41.687Z,1012.92
2019-05-01T06:24:42.417Z,1012.88
2019-05-01T06:25:41.644Z,1012.90
2019-05-01T06:26:41.620Z,1012.85
2019-05-01T06:27:44.761Z,1012.88
2019-05-01T06:28:41.576Z,1012.87
2019-05-01T06:29:41.557Z,1012.87
2019-05-01T06:30:42.082Z,1012.89
2019-05-01T06:31:41.511Z,1012.87
2019-05-01T06:32:41.491Z,1012.86
2019-05-01T06:33:44.277Z,1012.83
2019-05-01T06:34:41.444Z,1012.84
2019-05-01T06:35:41.423Z,1012.81
2019-05-01T06:36:44.301Z,1012.84
2019-05-01T06:37:41.378Z,1012.89
2019-05-01T06:38:41.356Z,1012.80
2019-05-01T06:39:42.930Z,1012.89
2019-05-01T06:40:41.321Z,1012.83
2019-05-01T06:41:42.749Z,1012.82
2019-05-01T06:42:41.279Z,1012.87
2019-05-01T06:43:43.591Z,1012.89
2019-05-01T06:44:44.215Z,1012.89
2019-05-01T06:45:41.201Z,1012.87
2019-05-01T06:46:41.179Z,1012.85
2019-05-01T06:47:43.056Z,1012.88
2019-05-01T06:48:41.135Z,1012.89
2019-05-01T06:49:41.122Z,1012.90
2019-05-01T06:50:41.848Z,1012.90
2019-05-01T06:51:41.073Z,1012.87
2019-05-01T06:52:41.045Z,1012.88
2019-05-01T06:53:41.244Z,1012.90
2019-05-01T06:54:41.001Z,1012.86
2019-05-01T06:55:40.978Z,1012.87
2019-05-01T06:56:40.958Z,1012.88
2019-05-01T06:57:43.662Z,1012.90
2019-05-01T06:58:40.915Z,1012.90
2019-05-01T06:59:40.906Z,1012.91
2019-05-01T07:00:43.166Z,1012.93
2019-05-01T07:01:40.855Z,1012.95
2019-05-01T07:02:40.827Z,1012.93
2019-05-01T07:03:45.687Z,1012.89
2019-05-01T07:04:40.782Z,1012.92
2019-05-01T07:05:40.757Z,1012.93
2019-05-01T07:06:40.749Z,1012.94
2019-05-01T07:07:43.141Z,1012.95
2019-05-01T07:08:40.693Z,1012.98
2019-05-01T07:09:44.218Z,1013.00
2019-05-01T07:10:44.041Z,1013.02
2019-05-01T07:11:42.293Z,1012.99
2019-05-01T07:12:40.610Z,1012.99
2019-05-01T07:13:41.522Z,1013.00
2019-05-01T07:14:40.571Z,1013.01
2019-05-01T07:15:40.547Z,1012.99
2019-05-01T07:16:40.519Z,1012.99
2019-05-01T07:17:43.925Z,1012.99
2019-05-01T07:18:40.476Z,1012.97
2019-05-01T07:19:41.928Z,1012.98
2019-05-01T07:20:40.429Z,1012.97
2019-05-01T07:21:40.405Z,1012.98
2019-05-01T07:22:42.374Z,1013.01
2019-05-01T07:23:40.374Z,1013.03
2019-05-01T07:24:40.341Z,1013.01
2019-05-01T07:25:40.668Z,1013.01
2019-05-01T07:26:43.922Z,1013.04
2019-05-01T07:27:40.273Z,1013.00
2019-05-01T07:28:40.256Z,1013.02
2019-05-01T07:29:44.863Z,1013.03
2019-05-01T07:30:41.561Z,1013.06
2019-05-01T07:31:40.187Z,1013.03
2019-05-01T07:32:41.065Z,1013.02
2019-05-01T07:33:40.142Z,1013.06
2019-05-01T07:34:40.125Z,1013.02
2019-05-01T07:35:40.097Z,1013.03
2019-05-01T07:36:40.086Z,1013.05
2019-05-01T07:37:40.051Z,1013.01
2019-05-01T07:38:40.537Z,1013.01
2019-05-01T07:39:40.016Z,1013.00
2019-05-01T07:40:39.987Z,1013.00
2019-05-01T07:41:39.964Z,1013.03
2019-05-01T07:42:43.657Z,1012.99
2019-05-01T07:43:39.924Z,1013.00
2019-05-01T07:44:39.898Z,1012.98
2019-05-01T07:45:43.567Z,1012.96
2019-05-01T07:46:39.860Z,1013.01
2019-05-01T07:47:39.835Z,1013.01
2019-05-01T07:48:41.543Z,1013.01
2019-05-01T07:49:39.788Z,1013.00
2019-05-01T07:50:39.776Z,1013.00
2019-05-01T07:51:42.390Z,1012.99
2019-05-01T07:52:39.724Z,1012.97
2019-05-01T07:53:39.699Z,1012.97
2019-05-01T07:54:42.480Z,1012.99
2019-05-01T07:55:39.690Z,1012.95
2019-05-01T07:56:39.636Z,1012.98
2019-05-01T07:57:41.204Z,1012.98
2019-05-01T07:58:39.593Z,1012.98
2019-05-01T07:59:39.578Z,1012.94
2019-05-01T08:00:41.471Z,1013.00
2019-05-01T08:01:39.524Z,1012.96
2019-05-01T08:02:39.505Z,1012.95
2019-05-01T08:03:42.741Z,1012.93
2019-05-01T08:04:39.466Z,1012.98
2019-05-01T08:05:40.831Z,1012.94
2019-05-01T08:06:39.429Z,1012.92
2019-05-01T08:07:39.399Z,1012.94
2019-05-01T08:08:39.962Z,1012.96
2019-05-01T08:09:39.363Z,1012.97
2019-05-01T08:10:39.340Z,1012.90
2019-05-01T08:11:44.192Z,1012.92
2019-05-01T08:12:39.287Z,1012.89
2019-05-01T08:13:39.261Z,1012.87
2019-05-01T08:14:39.242Z,1012.92
2019-05-01T08:15:39.221Z,1012.89
2019-05-01T08:16:42.430Z,1012.88
2019-05-01T08:17:39.179Z,1012.90
2019-05-01T08:18:39.158Z,1012.89
2019-05-01T08:19:40.595Z,1012.87
2019-05-01T08:20:39.115Z,1012.91
2019-05-01T08:21:39.108Z,1012.87
2019-05-01T08:22:39.216Z,1012.89
2019-05-01T08:23:42.613Z,1012.85
2019-05-01T08:24:39.042Z,1012.87
2019-05-01T08:25:39.002Z,1012.86
2019-05-01T08:26:39.744Z,1012.90
2019-05-01T08:27:38.967Z,1012.90
2019-05-01T08:28:38.938Z,1012.88
2019-05-01T08:29:42.076Z,1012.92
2019-05-01T08:30:38.913Z,1012.88
2019-05-01T08:31:38.874Z,1012.90
2019-05-01T08:32:40.848Z,1012.92
2019-05-01T08:33:38.836Z,1012.90
2019-05-01T08:34:48.851Z,1012.87
2019-05-01T08:35:38.803Z,1012.85
2019-05-01T08:36:42.699Z,1012.89
2019-05-01T08:37:38.750Z,1012.88
2019-05-01T08:38:38.727Z,1012.86
2019-05-01T08:39:39.739Z,1012.89
2019-05-01T08:40:38.690Z,1012.89
2019-05-01T08:41:38.658Z,1012.87
2019-05-01T08:42:42.535Z,1012.86
2019-05-01T08:43:38.621Z,1012.90
2019-05-01T08:44:38.594Z,1012.90
2019-05-01T08:45:40.773Z,1012.88
2019-05-01T08:46:38.549Z,1012.89
2019-05-01T08:47:38.530Z,1012.86
2019-05-01T08:48:38.506Z,1012.90
2019-05-01T08:49:41.745Z,1012.91
2019-05-01T08:50:38.468Z,1012.93
2019-05-01T08:51:38.441Z,1012.94
2019-05-01T08:52:38.425Z,1012.94
2019-05-01T08:53:38.403Z,1012.95
2019-05-01T08:54:38.382Z,1012.96
2019-05-01T08:55:39.806Z,1012.96
2019-05-01T08:56:38.338Z,1012.92
2019-05-01T08:57:39.550Z,1012.94
2019-05-01T08:58:38.291Z,1012.90
2019-05-01T08:59:38.270Z,1012.95
2019-05-01T09:00:41.158Z,1012.95
2019-05-01T09:01:38.233Z,1012.98
2019-05-01T09:02:41.791Z,1012.95
2019-05-01T09:03:38.186Z,1012.92
2019-05-01T09:04:38.168Z,1012.94
2019-05-01T09:05:38.155Z,1012.92
2019-05-01T09:06:39.400Z,1012.94
2019-05-01T09:07:38.189Z,1012.95
2019-05-01T09:08:38.077Z,1012.93
2019-05-01T09:09:39.834Z,1012.94
2019-05-01T09:10:38.033Z,1012.93
2019-05-01T09:11:38.019Z,1012.90
2019-05-01T09:12:38.000Z,1012.93
2019-05-01T09:13:38.010Z,1012.90
2019-05-01T09:14:37.946Z,1012.90
2019-05-01T09:15:37.929Z,1012.90
2019-05-01T09:16:37.913Z,1012.93
2019-05-01T09:17:37.883Z,1012.91
2019-05-01T09:18:37.883Z,1012.86
2019-05-01T09:19:37.841Z,1012.90
2019-05-01T09:20:37.820Z,1012.88
2019-05-01T09:21:39.390Z,1012.88
2019-05-01T09:22:37.779Z,1012.86
2019-05-01T09:23:37.757Z,1012.89
2019-05-01T09:24:37.734Z,1012.84
2019-05-01T09:25:37.721Z,1012.86
2019-05-01T09:26:37.699Z,1012.83
2019-05-01T09:27:37.674Z,1012.82
2019-05-01T09:28:39.777Z,1012.89
2019-05-01T09:29:37.626Z,1012.86
2019-05-01T09:30:37.609Z,1012.86
2019-05-01T09:31:37.601Z,1012.83
2019-05-01T09:32:37.570Z,1012.84
2019-05-01T09:33:37.543Z,1012.85
2019-05-01T09:34:37.534Z,1012.85
2019-05-01T09:35:40.415Z,1012.85
2019-05-01T09:36:37.485Z,1012.81
2019-05-01T09:37:37.460Z,1012.76
2019-05-01T09:38:37.446Z,1012.79
2019-05-01T09:39:37.415Z,1012.77
2019-05-01T09:40:37.396Z,1012.73
2019-05-01T09:41:38.723Z,1012.70
2019-05-01T09:42:37.353Z,1012.71
2019-05-01T09:43:37.333Z,1012.74
2019-05-01T09:44:37.312Z,1012.72
2019-05-01T09:45:37.291Z,1012.74
2019-05-01T09:46:37.272Z,1012.74
2019-05-01T09:47:37.255Z,1012.72
2019-05-01T09:48:37.229Z,1012.75
2019-05-01T09:49:37.207Z,1012.70
2019-05-01T09:50:37.188Z,1012.72
2019-05-01T09:51:37.167Z,1012.72
2019-05-01T09:52:37.144Z,1012.68
2019-05-01T09:53:37.129Z,1012.70
2019-05-01T09:54:37.105Z,1012.70
2019-05-01T09:55:37.089Z,1012.71
2019-05-01T09:56:38.432Z,1012.70
2019-05-01T09:57:41.316Z,1012.72
2019-05-01T09:58:37.027Z,1012.70
2019-05-01T09:59:37.002Z,1012.70
2019-05-01T10:00:36.979Z,1012.70
2019-05-01T10:01:36.960Z,1012.69
2019-05-01T10:02:37.596Z,1012.67
2019-05-01T10:03:36.915Z,1012.69
2019-05-01T10:04:36.889Z,1012.67
2019-05-01T10:05:38.156Z,1012.64
2019-05-01T10:06:36.856Z,1012.66
2019-05-01T10:07:36.831Z,1012.63
2019-05-01T10:08:39.884Z,1012.64
2019-05-01T10:09:36.784Z,1012.59
2019-05-01T10:10:37.129Z,1012.63
2019-05-01T10:11:40.679Z,1012.63
2019-05-01T10:12:36.736Z,1012.58
2019-05-01T10:13:36.707Z,1012.59
2019-05-01T10:14:37.494Z,1012.59
2019-05-01T10:15:36.660Z,1012.55
2019-05-01T10:16:36.647Z,1012.58
2019-05-01T10:17:36.620Z,1012.56
2019-05-01T10:18:36.606Z,1012.55
2019-05-01T10:19:36.574Z,1012.60
2019-05-01T10:20:36.553Z,1012.55
2019-05-01T10:21:36.546Z,1012.56
2019-05-01T10:22:37.466Z,1012.54
2019-05-01T10:23:36.496Z,1012.51
2019-05-01T10:24:37.621Z,1012.51
2019-05-01T10:25:36.456Z,1012.51
2019-05-01T10:26:36.426Z,1012.49
2019-05-01T10:27:37.471Z,1012.52
2019-05-01T10:28:36.390Z,1012.49
2019-05-01T10:29:36.366Z,1012.51
2019-05-01T10:30:37.572Z,1012.48
2019-05-01T10:31:36.325Z,1012.52
2019-05-01T10:32:36.306Z,1012.48
2019-05-01T10:33:36.285Z,1012.48
2019-05-01T10:34:38.651Z,1012.46
2019-05-01T10:35:42.885Z,1012.43
2019-05-01T10:36:36.220Z,1012.42
2019-05-01T10:37:36.203Z,1012.42
2019-05-01T10:38:39.921Z,1012.40
2019-05-01T10:39:36.157Z,1012.40
2019-05-01T10:40:36.143Z,1012.38
2019-05-01T10:41:36.118Z,1012.32
2019-05-01T10:42:36.094Z,1012.35
2019-05-01T10:43:36.075Z,1012.32
2019-05-01T10:44:36.059Z,1012.29
2019-05-01T10:45:36.035Z,1012.30
2019-05-01T10:46:36.024Z,1012.23
2019-05-01T10:47:35.993Z,1012.24
2019-05-01T10:48:35.974Z,1012.25
2019-05-01T10:49:35.951Z,1012.25
2019-05-01T10:50:35.929Z,1012.25
2019-05-01T10:51:35.909Z,1012.24
2019-05-01T10:52:35.894Z,1012.25
2019-05-01T10:53:35.866Z,1012.24
2019-05-01T10:54:35.848Z,1012.17
2019-05-01T10:55:35.834Z,1012.19
2019-05-01T10:56:35.812Z,1012.23
2019-05-01T10:57:40.453Z,1012.30
2019-05-01T10:58:35.764Z,1012.27
2019-05-01T10:59:35.754Z,1012.26
2019-05-01T11:00:35.723Z,1012.28
2019-05-01T11:01:35.701Z,1012.24
2019-05-01T11:02:35.684Z,1012.24
2019-05-01T11:03:35.662Z,1012.17
2019-05-01T11:04:35.645Z,1012.18
2019-05-01T11:05:35.632Z,1012.17
2019-05-01T11:06:35.604Z,1012.14
2019-05-01T11:07:35.581Z,1012.18
2019-05-01T11:08:35.560Z,1012.12
2019-05-01T11:09:35.543Z,1012.14
2019-05-01T11:10:35.522Z,1012.07
2019-05-01T11:11:35.511Z,1012.00
2019-05-01T11:12:35.480Z,1011.98
2019-05-01T11:13:35.457Z,1012.04
2019-05-01T11:14:35.445Z,1011.98
2019-05-01T11:15:35.434Z,1012.01
2019-05-01T11:16:35.402Z,1011.97
2019-05-01T11:17:35.387Z,1012.00
2019-05-01T11:18:35.358Z,1011.96
2019-05-01T11:19:35.342Z,1012.01
2019-05-01T11:20:35.326Z,1012.01
2019-05-01T11:21:35.301Z,1012.00
2019-05-01T11:22:35.278Z,1012.03
2019-05-01T11:23:35.264Z,1011.92
2019-05-01T11:24:35.245Z,1012.04
2019-05-01T11:25:35.245Z,1011.99
2019-05-01T11:26:35.211Z,1011.91
2019-05-01T11:27:35.182Z,1011.89
2019-05-01T11:28:35.161Z,1011.94
2019-05-01T11:29:35.143Z,1011.89
2019-05-01T11:30:35.125Z,1011.94
2019-05-01T11:31:35.105Z,1011.93
2019-05-01T11:32:35.088Z,1011.88
2019-05-01T11:33:35.061Z,1011.95
2019-05-01T11:34:35.044Z,1011.89
2019-05-01T11:35:35.028Z,1011.89
2019-05-01T11:36:35.020Z,1011.87
2019-05-01T11:37:34.983Z,1011.91
2019-05-01T11:38:34.970Z,1011.93
2019-05-01T11:39:35.891Z,1011.91
2019-05-01T11:40:34.929Z,1011.90
2019-05-01T11:41:34.904Z,1011.89
2019-05-01T11:42:34.890Z,1011.86
2019-05-01T11:43:34.866Z,1011.88
2019-05-01T11:44:34.849Z,1011.81
2019-05-01T11:45:34.827Z,1011.85
2019-05-01T11:46:34.806Z,1011.83
2019-05-01T11:47:34.801Z,1011.80
2019-05-01T11:48:34.776Z,1011.79
2019-05-01T11:49:34.748Z,1011.81
2019-05-01T11:50:34.734Z,1011.76
2019-05-01T11:51:34.718Z,1011.79
2019-05-01T11:52:34.694Z,1011.74
2019-05-01T11:53:34.675Z,1011.76
2019-05-01T11:54:34.677Z,1011.77
2019-05-01T11:55:34.978Z,1011.71
2019-05-01T11:56:34.616Z,1011.65
2019-05-01T11:57:34.604Z,1011.65
2019-05-01T11:58:34.581Z,1011.66
2019-05-01T11:59:34.569Z,1011.70
2019-05-01T12:00:34.543Z,1011.69
2019-05-01T12:01:34.855Z,1011.67
2019-05-01T12:02:34.501Z,1011.73
2019-05-01T12:03:34.489Z,1011.68
2019-05-01T12:04:34.463Z,1011.71
2019-05-01T12:05:34.435Z,1011.66
2019-05-01T12:06:34.418Z,1011.69
2019-05-01T12:07:34.398Z,1011.72
2019-05-01T12:08:34.386Z,1011.69
2019-05-01T12:09:34.366Z,1011.61
2019-05-01T12:10:34.350Z,1011.63
2019-05-01T12:11:34.331Z,1011.57
2019-05-01T12:12:34.302Z,1011.60
2019-05-01T12:13:43.630Z,1011.61
2019-05-01T12:14:34.269Z,1011.62
2019-05-01T12:15:34.251Z,1011.64
2019-05-01T12:16:34.225Z,1011.52
2019-05-01T12:17:34.219Z,1011.56
2019-05-01T12:18:34.185Z,1011.64
2019-05-01T12:19:34.170Z,1011.58
2019-05-01T12:20:34.158Z,1011.53
2019-05-01T12:21:34.127Z,1011.51
2019-05-01T12:22:34.322Z,1011.59
2019-05-01T12:23:34.097Z,1011.67
2019-05-01T12:24:34.071Z,1011.62
2019-05-01T12:25:34.050Z,1011.59
2019-05-01T12:26:34.052Z,1011.59
2019-05-01T12:27:34.009Z,1011.55
2019-05-01T12:28:34.005Z,1011.58
2019-05-01T12:29:33.978Z,1011.50
2019-05-01T12:30:33.956Z,1011.44
2019-05-01T12:31:33.938Z,1011.44
2019-05-01T12:32:33.933Z,1011.37
2019-05-01T12:33:33.898Z,1011.37
2019-05-01T12:34:33.873Z,1011.48
2019-05-01T12:35:33.905Z,1011.45
2019-05-01T12:36:36.356Z,1011.44
2019-05-01T12:37:33.847Z,1011.39
2019-05-01T12:38:33.797Z,1011.27
2019-05-01T12:39:33.779Z,1011.27
2019-05-01T12:40:33.765Z,1011.30
2019-05-01T12:41:33.741Z,1011.26
2019-05-01T12:42:33.729Z,1011.24
2019-05-01T12:43:33.701Z,1011.30
2019-05-01T12:44:33.690Z,1011.30
2019-05-01T12:45:33.662Z,1011.27
2019-05-01T12:46:33.642Z,1011.28
2019-05-01T12:47:33.632Z,1011.27
2019-05-01T12:48:33.624Z,1011.15
2019-05-01T12:49:33.586Z,1011.18
2019-05-01T12:50:33.582Z,1011.19
2019-05-01T12:51:33.546Z,1011.22
2019-05-01T12:52:33.536Z,1011.11
2019-05-01T12:53:33.513Z,1011.22
2019-05-01T12:54:33.489Z,1011.17
2019-05-01T12:55:33.470Z,1011.08
2019-05-01T12:56:33.451Z,1011.13
2019-05-01T12:57:33.485Z,1011.04
2019-05-01T12:58:33.430Z,1011.06
2019-05-01T12:59:33.401Z,1011.03
2019-05-01T13:00:33.375Z,1011.06
2019-05-01T13:01:33.357Z,1011.05